Time;durP1;ratioP1;P1;durP2;ratioP2;P2;SDS_P1;SDS_P2;PMS_P1;PMS_P2;Temp;Humidity;BMP_temperature;BMP_pressure;BME280_temperature;BME280_humidity;BME280_pressure;Samples;Min_cycle;Max_cycle;Signal;HPM_P1;HPM_P2
2024/01/06 00:01:33;;;;;;;17.43;10.27;;;4.30;99.90;;;;;;10433031;28;20643;-94
2024/01/06 00:06:36;;;;;;;23.23;14.93;;;4.90;99.90;;;;;;10428558;28;20239;-95
2024/01/06 00:11:39;;;;;;;16.87;11.53;;;4.60;99.90;;;;;;10415998;28;20256;-95
2024/01/06 00:16:41;;;;;;;20.47;13.43;;;3.50;99.90;;;;;;10440699;28;20251;-94
2024/01/06 00:21:44;;;;;;;22.17;14.60;;;3.70;99.90;;;;;;10418890;28;20229;-96
2024/01/06 00:26:46;;;;;;;22.70;13.47;;;4.20;99.90;;;;;;10434984;28;20208;-94
2024/01/06 00:31:49;;;;;;;20.23;12.00;;;3.90;99.90;;;;;;10448241;28;20227;-93
2024/01/06 00:36:51;;;;;;;18.57;13.10;;;3.60;99.90;;;;;;10409121;28;20251;-93
2024/01/06 00:41:54;;;;;;;21.77;13.97;;;3.40;99.90;;;;;;10429083;28;20440;-94
2024/01/06 00:46:57;;;;;;;24.60;14.17;;;4.10;99.90;;;;;;10430604;28;20231;-94
2024/01/06 00:52:00;;;;;;;19.93;13.23;;;3.30;99.90;;;;;;10445027;28;20260;-93
2024/01/06 00:57:03;;;;;;;23.47;15.20;;;2.70;99.90;;;;;;10484546;28;20245;-93
2024/01/06 01:02:06;;;;;;;23.97;14.87;;;3.30;99.90;;;;;;10494876;28;20586;-92
2024/01/06 01:07:08;;;;;;;23.27;12.97;;;4.10;99.90;;;;;;10493947;28;20276;-93
2024/01/06 01:12:11;;;;;;;19.77;14.50;;;4.10;99.90;;;;;;10493556;28;20730;-94
2024/01/06 01:17:13;;;;;;;19.10;13.00;;;3.40;99.90;;;;;;10476020;28;20334;-93
2024/01/06 01:22:16;;;;;;;20.13;12.63;;;3.10;99.90;;;;;;10477113;28;20238;-92
2024/01/06 01:27:18;;;;;;;22.47;14.70;;;4.30;99.90;;;;;;10494068;28;20302;-94
2024/01/06 01:32:20;;;;;;;19.23;13.47;;;4.20;99.90;;;;;;10483601;28;20579;-93
2024/01/06 01:37:23;;;;;;;17.80;12.57;;;3.80;99.90;;;;;;10475477;28;20248;-92
2024/01/06 01:42:26;;;;;;;17.23;11.40;;;4.10;99.90;;;;;;10453373;28;20240;-92
2024/01/06 01:47:29;;;;;;;17.53;11.73;;;3.80;99.90;;;;;;10453675;28;20226;-92
2024/01/06 01:52:32;;;;;;;15.03;10.80;;;3.30;99.90;;;;;;10438082;28;20302;-92
2024/01/06 01:57:35;;;;;;;19.40;13.50;;;4.30;99.90;;;;;;10459121;28;20236;-92
2024/01/06 02:02:37;;;;;;;15.63;11.30;;;4.30;99.90;;;;;;10492716;28;20240;-93
2024/01/06 02:07:40;;;;;;;15.67;11.53;;;3.80;99.90;;;;;;10484123;28;20243;-94
2024/01/06 02:12:43;;;;;;;19.77;14.47;;;4.00;99.90;;;;;;10474497;28;20255;-93
2024/01/06 02:17:45;;;;;;;16.27;10.70;;;3.70;99.90;;;;;;10453746;28;20661;-92
2024/01/06 02:22:48;;;;;;;16.60;10.50;;;4.60;99.90;;;;;;10450436;28;20230;-91
2024/01/06 02:27:50;;;;;;;15.60;10.27;;;5.10;99.90;;;;;;10465944;28;20221;-94
2024/01/06 02:32:53;;;;;;;18.27;13.23;;;5.60;99.90;;;;;;10470135;28;20620;-91
2024/01/06 02:37:55;;;;;;;17.20;12.63;;;4.60;99.90;;;;;;10491734;28;20241;-93
2024/01/06 02:42:59;;;;;;;17.67;12.97;;;4.00;99.90;;;;;;10491338;28;20257;-93
2024/01/06 02:48:01;;;;;;;18.13;11.73;;;3.10;99.90;;;;;;10487050;28;20263;-93
2024/01/06 02:53:04;;;;;;;15.10;11.00;;;2.90;99.90;;;;;;10482462;28;20260;-93
2024/01/06 02:58:06;;;;;;;15.57;11.53;;;2.80;99.90;;;;;;10473586;28;20253;-93
2024/01/06 03:03:09;;;;;;;15.80;12.17;;;2.50;99.90;;;;;;10489439;28;20223;-92
2024/01/06 03:08:12;;;;;;;16.67;13.70;;;1.90;99.90;;;;;;10451197;28;20617;-93
2024/01/06 03:13:14;;;;;;;18.27;12.47;;;2.20;99.90;;;;;;10449660;28;20260;-93
2024/01/06 03:18:17;;;;;;;18.97;13.93;;;1.70;99.90;;;;;;10473476;28;20269;-92
2024/01/06 03:23:20;;;;;;;14.60;10.23;;;2.80;99.90;;;;;;10491608;28;20196;-91
2024/01/06 03:28:22;;;;;;;17.20;12.87;;;2.60;99.90;;;;;;10461508;28;20233;-93
2024/01/06 03:33:25;;;;;;;19.47;12.67;;;2.90;99.90;;;;;;10473104;28;20220;-93
2024/01/06 03:38:27;;;;;;;16.23;11.60;;;2.00;99.90;;;;;;10486504;28;20278;-92
2024/01/06 03:43:30;;;;;;;13.80;9.53;;;2.10;99.90;;;;;;10473953;28;20234;-92
2024/01/06 03:48:33;;;;;;;15.77;11.73;;;1.90;99.90;;;;;;10490460;28;20235;-93
2024/01/06 03:53:36;;;;;;;13.43;9.10;;;1.80;99.90;;;;;;10472724;28;20270;-93
2024/01/06 03:58:38;;;;;;;18.17;12.17;;;2.10;99.90;;;;;;10482017;28;20308;-93
2024/01/06 04:03:41;;;;;;;23.27;13.90;;;2.50;99.90;;;;;;10456348;28;20273;-94
2024/01/06 04:08:43;;;;;;;17.50;13.17;;;2.80;99.90;;;;;;10456362;28;20614;-95
2024/01/06 04:13:46;;;;;;;17.23;12.60;;;3.10;99.90;;;;;;10485780;28;20232;-93
2024/01/06 04:18:48;;;;;;;16.70;12.17;;;2.70;99.90;;;;;;10498020;28;20242;-94
2024/01/06 04:23:51;;;;;;;16.03;12.57;;;2.40;99.90;;;;;;10494020;28;20297;-93
2024/01/06 04:28:54;;;;;;;14.93;11.37;;;2.30;99.90;;;;;;10450082;28;20203;-93
2024/01/06 04:33:56;;;;;;;15.43;12.27;;;2.00;99.90;;;;;;10496999;28;20237;-93
2024/01/06 04:38:59;;;;;;;16.10;12.13;;;1.70;99.90;;;;;;10496979;28;20246;-93
2024/01/06 04:44:02;;;;;;;16.37;9.83;;;1.40;99.90;;;;;;10496840;28;20195;-94
2024/01/06 04:49:04;;;;;;;12.63;10.13;;;2.20;99.90;;;;;;10485505;28;20572;-94
2024/01/06 04:54:07;;;;;;;13.53;9.57;;;2.50;99.90;;;;;;10456098;28;20265;-93
2024/01/06 04:59:10;;;;;;;11.23;8.17;;;3.00;99.90;;;;;;10482084;28;20256;-95
2024/01/06 05:04:12;;;;;;;13.40;10.17;;;2.40;99.90;;;;;;10441047;28;20197;-93
2024/01/06 05:09:15;;;;;;;15.17;11.07;;;3.10;99.90;;;;;;10467016;28;20204;-93
2024/01/06 05:14:18;;;;;;;13.40;9.97;;;4.00;99.90;;;;;;10473855;28;20190;-93
2024/01/06 05:19:21;;;;;;;12.57;9.70;;;2.60;99.90;;;;;;10438592;28;20199;-95
2024/01/06 05:24:24;;;;;;;13.50;8.90;;;1.60;99.90;;;;;;10444724;28;20202;-95
2024/01/06 05:29:26;;;;;;;12.67;10.03;;;1.20;99.90;;;;;;10495428;28;20265;-95
2024/01/06 05:34:29;;;;;;;13.10;9.57;;;0.70;99.90;;;;;;10496626;28;20198;-93
2024/01/06 05:39:31;;;;;;;13.07;9.87;;;0.40;99.90;;;;;;10478906;28;20243;-93
2024/01/06 05:44:37;;;;;;;12.47;9.53;;;0.50;99.90;;;;;;10478032;28;20206;-91
2024/01/06 05:49:45;;;;;;;11.97;9.70;;;0.60;99.90;;;;;;10496929;28;20198;-94
2024/01/06 05:54:48;;;;;;;11.60;8.03;;;1.90;99.90;;;;;;10453576;28;20708;-95
2024/01/06 05:59:51;;;;;;;11.20;8.13;;;1.50;99.90;;;;;;10452333;28;20283;-92
2024/01/06 06:04:53;;;;;;;13.07;10.23;;;1.10;99.90;;;;;;10448763;28;20238;-90
2024/01/06 06:09:56;;;;;;;13.20;9.60;;;2.10;99.90;;;;;;10438504;28;20231;-90
2024/01/06 06:14:58;;;;;;;11.80;9.20;;;1.60;99.90;;;;;;10431351;28;20284;-90
2024/01/06 06:20:01;;;;;;;13.53;10.77;;;1.50;99.90;;;;;;10449530;28;20668;-91
2024/01/06 06:25:04;;;;;;;14.13;9.03;;;1.70;99.90;;;;;;10445235;28;20230;-91
2024/01/06 06:30:08;;;;;;;13.43;10.90;;;2.60;99.90;;;;;;10448697;28;20227;-91
2024/01/06 06:35:10;;;;;;;13.03;10.33;;;2.30;99.90;;;;;;10450111;28;20277;-91
2024/01/06 06:40:13;;;;;;;15.37;11.00;;;2.50;99.90;;;;;;10449032;28;20304;-90
2024/01/06 06:45:24;;;;;;;14.57;10.50;;;2.80;99.90;;;;;;10455431;28;20203;-91
2024/01/06 06:50:27;;;;;;;9.40;5.20;;;2.80;99.90;;;;;;10450793;28;20677;-90
2024/01/06 06:55:29;;;;;;;13.00;10.40;;;2.60;99.90;;;;;;10486097;28;20699;-90
2024/01/06 07:00:32;;;;;;;13.20;9.53;;;2.40;99.90;;;;;;10490101;28;20214;-90
2024/01/06 07:05:35;;;;;;;12.87;9.70;;;1.50;99.90;;;;;;10473647;28;20260;-91
2024/01/06 07:10:38;;;;;;;14.07;10.03;;;1.70;99.90;;;;;;10467911;28;20234;-92
2024/01/06 07:15:41;;;;;;;13.20;10.30;;;2.30;99.90;;;;;;10442515;28;20709;-90
2024/01/06 07:20:43;;;;;;;14.27;10.73;;;2.30;99.90;;;;;;10490331;28;20239;-90
2024/01/06 07:25:46;;;;;;;19.73;12.23;;;1.70;99.90;;;;;;10457112;28;20234;-90
2024/01/06 07:30:48;;;;;;;22.90;15.27;;;0.90;99.90;;;;;;10477608;28;20229;-91
2024/01/06 07:35:51;;;;;;;19.97;15.37;;;0.80;99.90;;;;;;10492620;28;20659;-91
2024/01/06 07:40:54;;;;;;;24.63;17.63;;;0.60;99.90;;;;;;10498127;28;20202;-90
2024/01/06 07:45:57;;;;;;;26.67;17.00;;;0.50;99.90;;;;;;10479497;28;20194;-90
2024/01/06 07:50:59;;;;;;;23.23;17.20;;;0.30;99.90;;;;;;10497487;28;20222;-90
2024/01/06 07:56:02;;;;;;;26.40;16.77;;;0.10;99.90;;;;;;10496917;28;20262;-90
2024/01/06 08:01:04;;;;;;;13.77;9.77;;;0.30;99.90;;;;;;10478986;28;20732;-91
2024/01/06 08:06:07;;;;;;;22.53;16.60;;;0.10;99.90;;;;;;10492273;28;20229;-91
2024/01/06 08:11:10;;;;;;;24.67;17.13;;;-0.10;99.90;;;;;;10496216;28;20302;-90
2024/01/06 08:16:12;;;;;;;10.07;7.30;;;-0.20;99.90;;;;;;10476629;28;20711;-90
2024/01/06 08:21:15;;;;;;;22.63;15.13;;;-0.30;99.90;;;;;;10496240;28;20303;-90
2024/01/06 08:26:18;;;;;;;22.10;16.60;;;-0.10;99.90;;;;;;10476406;28;20335;-91
2024/01/06 08:31:22;;;;;;;23.13;14.97;;;-0.30;99.90;;;;;;10496504;28;20632;-91
2024/01/06 08:36:24;;;;;;;23.77;16.30;;;-0.40;99.90;;;;;;10495618;28;20709;-90
2024/01/06 08:41:27;;;;;;;20.17;13.27;;;-0.10;99.90;;;;;;10496681;28;20214;-90
2024/01/06 08:46:30;;;;;;;21.67;14.67;;;0.10;99.90;;;;;;10500571;28;20198;-90
2024/01/06 08:51:33;;;;;;;19.43;13.53;;;0.10;99.90;;;;;;10495724;28;20283;-90
2024/01/06 08:56:35;;;;;;;20.33;14.63;;;0.10;99.90;;;;;;10470947;28;20263;-90
2024/01/06 09:01:40;;;;;;;21.53;13.33;;;0.30;99.90;;;;;;10458006;28;20199;-91
2024/01/06 09:06:43;;;;;;;20.07;13.80;;;0.20;99.90;;;;;;10447916;28;20919;-92
2024/01/06 09:11:46;;;;;;;17.10;12.27;;;0.00;99.90;;;;;;10453751;28;20628;-91
2024/01/06 09:16:48;;;;;;;18.03;12.47;;;-0.20;99.90;;;;;;10434756;28;20258;-90
2024/01/06 09:21:51;;;;;;;19.30;14.10;;;-0.10;99.90;;;;;;10487467;28;20283;-91
2024/01/06 09:26:54;;;;;;;12.27;9.07;;;0.00;99.90;;;;;;10453303;28;20226;-91
2024/01/06 09:31:57;;;;;;;19.83;14.23;;;0.40;99.90;;;;;;10452711;28;20230;-91
2024/01/06 09:36:59;;;;;;;18.43;13.17;;;0.20;99.90;;;;;;10470492;28;20246;-90
2024/01/06 09:42:02;;;;;;;18.50;12.93;;;0.20;99.90;;;;;;10493063;28;20290;-92
2024/01/06 09:47:06;;;;;;;23.97;15.70;;;0.60;99.90;;;;;;10492407;28;20222;-90
2024/01/06 09:52:15;;;;;;;22.10;15.83;;;1.10;99.90;;;;;;10492607;28;20280;-93
2024/01/06 09:57:18;;;;;;;21.33;15.23;;;1.50;99.90;;;;;;10474745;28;20299;-85
2024/01/06 10:02:22;;;;;;;21.97;15.37;;;1.30;99.90;;;;;;10457669;28;20283;-85
2024/01/06 10:07:28;;;;;;;21.40;15.50;;;0.90;99.90;;;;;;10490979;28;20308;-86
2024/01/06 10:12:31;;;;;;;17.53;11.20;;;0.80;99.90;;;;;;10489091;28;20225;-88
2024/01/06 10:17:41;;;;;;;20.53;14.73;;;0.80;99.90;;;;;;10491047;28;20254;-86
2024/01/06 10:22:45;;;;;;;20.97;16.33;;;0.80;99.90;;;;;;10491016;28;20299;-87
2024/01/06 10:27:48;;;;;;;14.23;9.23;;;1.10;99.90;;;;;;10490764;28;20230;-87
2024/01/06 10:32:51;;;;;;;21.13;16.50;;;0.90;99.90;;;;;;10491682;28;20238;-86
2024/01/06 10:37:54;;;;;;;25.47;16.73;;;0.60;99.90;;;;;;10459836;28;20624;-86
2024/01/06 10:42:57;;;;;;;39.17;23.90;;;0.90;99.90;;;;;;10488362;28;20251;-86
2024/01/06 10:48:03;;;;;;;21.37;13.80;;;0.90;99.90;;;;;;10488927;28;20234;-86
2024/01/06 10:53:05;;;;;;;47.67;28.33;;;0.90;99.90;;;;;;10490698;28;20303;-92
2024/01/06 10:58:09;;;;;;;30.57;18.87;;;0.60;99.90;;;;;;10482226;28;20262;-88
2024/01/06 11:03:14;;;;;;;26.93;16.57;;;0.50;99.90;;;;;;10489881;28;20229;-88
2024/01/06 11:08:21;;;;;;;26.70;16.57;;;0.60;99.90;;;;;;10138299;28;9999973;-87
2024/01/06 11:13:25;;;;;;;18.40;11.93;;;0.60;99.90;;;;;;10495883;28;20230;-87
2024/01/06 11:18:34;;;;;;;27.93;19.00;;;0.90;99.90;;;;;;10493834;28;20261;-86
2024/01/06 11:23:38;;;;;;;19.73;14.10;;;0.80;99.90;;;;;;10495169;28;20290;-85
2024/01/06 11:28:46;;;;;;;14.10;9.30;;;0.50;99.90;;;;;;10495591;28;20283;-86
2024/01/06 11:33:51;;;;;;;12.80;8.63;;;0.30;99.90;;;;;;10494135;28;20654;-87
2024/01/06 11:38:54;;;;;;;9.60;7.53;;;0.40;99.90;;;;;;10483285;28;20253;-87
2024/01/06 11:43:56;;;;;;;13.87;9.07;;;0.30;99.90;;;;;;10480802;28;20276;-87
2024/01/06 11:49:00;;;;;;;10.73;8.27;;;0.50;99.90;;;;;;10493498;28;20229;-86
2024/01/06 11:54:03;;;;;;;12.20;7.23;;;0.60;99.90;;;;;;10505394;28;20257;-86
2024/01/06 11:59:06;;;;;;;12.33;7.73;;;0.80;99.90;;;;;;10494221;28;20326;-86
2024/01/06 12:04:13;;;;;;;10.27;6.33;;;1.30;99.90;;;;;;10488849;28;20229;-85
2024/01/06 12:09:19;;;;;;;14.07;9.30;;;1.40;99.90;;;;;;10506470;28;20237;-84
2024/01/06 12:14:22;;;;;;;16.50;9.77;;;1.50;99.90;;;;;;10494281;28;20234;-86
2024/01/06 12:19:24;;;;;;;17.50;10.77;;;2.40;99.90;;;;;;10509546;28;20391;-86
2024/01/06 12:24:28;;;;;;;20.00;10.33;;;2.80;99.90;;;;;;10487238;28;20292;-86
2024/01/06 12:29:31;;;;;;;20.90;12.20;;;2.50;99.90;;;;;;10462828;28;20262;-83
2024/01/06 12:34:35;;;;;;;7.43;5.07;;;2.00;99.90;;;;;;10437200;28;20688;-90
2024/01/06 12:39:38;;;;;;;21.80;10.97;;;5.10;99.90;;;;;;10454568;28;20328;-83
2024/01/06 12:44:42;;;;;;;10.27;6.27;;;7.60;99.90;;;;;;10458067;28;20230;-83
2024/01/06 12:49:45;;;;;;;17.50;7.17;;;10.00;99.90;;;;;;10486424;28;20226;-87
2024/01/06 12:54:48;;;;;;;13.00;7.70;;;10.50;99.90;;;;;;10476482;28;20236;-87
2024/01/06 12:59:51;;;;;;;13.00;7.17;;;11.00;99.90;;;;;;10480157;28;20251;-92
2024/01/06 13:04:54;;;;;;;17.60;10.17;;;10.00;99.90;;;;;;10474177;28;20202;-91
2024/01/06 13:09:57;;;;;;;13.13;8.03;;;8.90;99.90;;;;;;10453014;28;20254;-93
2024/01/06 13:15:00;;;;;;;11.43;7.00;;;6.50;99.90;;;;;;10458524;28;20258;-88
2024/01/06 13:20:04;;;;;;;7.37;5.43;;;4.10;99.90;;;;;;10491404;28;20271;-89
2024/01/06 13:25:08;;;;;;;11.37;7.40;;;4.30;99.90;;;;;;10492272;28;20216;-88
2024/01/06 13:30:14;;;;;;;11.20;6.43;;;5.00;99.90;;;;;;10475630;28;20210;-87
2024/01/06 13:35:24;;;;;;;10.40;6.17;;;5.70;99.90;;;;;;10444486;28;20258;-87
2024/01/06 13:40:27;;;;;;;10.13;6.47;;;5.30;99.90;;;;;;10490838;28;20253;-85
2024/01/06 13:45:30;;;;;;;9.13;6.57;;;4.90;99.90;;;;;;10464909;28;20229;-85
2024/01/06 13:50:32;;;;;;;8.60;6.47;;;4.50;99.90;;;;;;10476022;28;20286;-86
2024/01/06 13:55:35;;;;;;;12.70;7.10;;;4.40;99.90;;;;;;10486595;28;20256;-83
2024/01/06 14:00:37;;;;;;;15.33;9.20;;;3.80;99.90;;;;;;10473942;28;20805;-86
2024/01/06 14:05:40;;;;;;;10.60;6.27;;;6.30;99.90;;;;;;10477073;28;20622;-85
2024/01/06 14:10:44;;;;;;;8.00;5.63;;;5.80;99.90;;;;;;10451235;28;20269;-86
2024/01/06 14:15:47;;;;;;;7.47;5.07;;;5.30;99.90;;;;;;10433333;28;20233;-86
2024/01/06 14:20:51;;;;;;;12.50;6.63;;;5.00;99.90;;;;;;10450053;28;20635;-86
2024/01/06 14:25:54;;;;;;;16.10;8.40;;;6.70;99.90;;;;;;10480329;28;20269;-83
2024/01/06 14:30:56;;;;;;;31.47;12.27;;;6.30;99.90;;;;;;10491127;28;20226;-85
2024/01/06 14:35:59;;;;;;;22.40;13.53;;;6.20;99.90;;;;;;10474701;28;20197;-89
2024/01/06 14:41:02;;;;;;;14.13;8.73;;;5.70;99.90;;;;;;10473027;28;20281;-88
2024/01/06 14:46:05;;;;;;;145.27;70.87;;;2.30;99.90;;;;;;10474186;28;20618;-90
2024/01/06 14:51:08;;;;;;;36.57;21.43;;;1.50;99.90;;;;;;10449343;28;20267;-90
2024/01/06 14:56:11;;;;;;;25.47;13.13;;;1.20;99.90;;;;;;10491336;28;20264;-92
2024/01/06 15:01:15;;;;;;;534.77;261.10;;;1.30;99.90;;;;;;10490288;28;20726;-88
2024/01/06 15:06:17;;;;;;;27.83;18.70;;;0.80;99.90;;;;;;10473010;28;20922;-88
2024/01/06 15:11:20;;;;;;;29.90;20.80;;;0.10;99.90;;;;;;10488979;28;20234;-89
2024/01/06 15:16:23;;;;;;;12.80;8.60;;;-0.70;99.90;;;;;;10472658;28;20237;-90
2024/01/06 15:21:27;;;;;;;1374.80;322.33;;;-0.90;99.90;;;;;;10491739;28;20257;-84
2024/01/06 15:26:29;;;;;;;15.63;9.70;;;-0.80;99.90;;;;;;10490094;28;20230;-89
2024/01/06 15:31:32;;;;;;;20.10;14.37;;;-0.70;99.90;;;;;;10490847;28;20236;-89
2024/01/06 15:36:35;;;;;;;16.87;10.03;;;-1.10;99.90;;;;;;10488632;28;20647;-88
2024/01/06 15:41:37;;;;;;;18.37;11.43;;;-1.30;99.90;;;;;;10490556;28;20653;-87
2024/01/06 15:46:40;;;;;;;16.93;11.77;;;-1.40;99.90;;;;;;10485896;28;20227;-88
2024/01/06 15:51:42;;;;;;;17.50;11.80;;;-1.50;99.90;;;;;;10489012;28;20231;-90
2024/01/06 15:56:45;;;;;;;32.67;16.47;;;-1.50;99.90;;;;;;10492306;28;20229;-88
2024/01/06 16:01:48;;;;;;;39.37;25.13;;;-1.50;99.90;;;;;;10505182;28;20249;-88
2024/01/06 16:06:52;;;;;;;44.40;27.40;;;-1.50;99.90;;;;;;10474836;28;20248;-89
2024/01/06 16:11:57;;;;;;;55.10;30.73;;;-1.60;99.90;;;;;;10480867;28;20199;-88
2024/01/06 16:17:00;;;;;;;32.43;19.03;;;-1.60;99.90;;;;;;10476199;28;20238;-88
2024/01/06 16:22:03;;;;;;;31.90;18.10;;;-1.60;99.90;;;;;;10439436;28;20198;-89
2024/01/06 16:27:18;;;;;;;92.03;51.90;;;-1.60;99.90;;;;;;10466635;28;20208;-86
2024/01/06 16:32:21;;;;;;;36.60;18.97;;;;;;;;;;10493886;28;20939;-89
2024/01/06 16:37:24;;;;;;;24.77;14.37;;;-1.60;99.90;;;;;;10496017;28;20296;-84
2024/01/06 16:42:27;;;;;;;33.77;18.70;;;-1.80;99.90;;;;;;10476992;28;20273;-84
2024/01/06 16:47:29;;;;;;;27.33;15.93;;;-1.80;99.90;;;;;;10492948;28;20690;-81
2024/01/06 16:52:32;;;;;;;34.17;16.77;;;-1.80;99.90;;;;;;10464516;28;20266;-82
2024/01/06 16:57:35;;;;;;;29.27;15.80;;;;;;;;;;10494617;28;20267;-83
2024/01/06 17:02:38;;;;;;;27.77;14.97;;;-1.90;99.90;;;;;;10493972;28;20254;-83
2024/01/06 17:07:44;;;;;;;23.63;11.80;;;;;;;;;;10465180;28;20263;-84
2024/01/06 17:12:47;;;;;;;32.67;17.77;;;-1.90;99.90;;;;;;10493848;28;20231;-82
2024/01/06 17:17:49;;;;;;;20.13;12.60;;;-1.80;99.90;;;;;;10494039;28;20254;-83
2024/01/06 17:22:52;;;;;;;29.47;14.93;;;-1.80;99.90;;;;;;10475484;28;20211;-83
2024/01/06 17:27:54;;;;;;;25.77;15.33;;;-1.70;99.90;;;;;;10490882;28;20249;-83
2024/01/06 17:32:57;;;;;;;27.73;12.23;;;-1.80;99.90;;;;;;10493333;28;20596;-83
2024/01/06 17:38:00;;;;;;;23.37;13.10;;;-1.70;99.90;;;;;;10491631;28;20281;-83
2024/01/06 17:43:03;;;;;;;24.33;15.03;;;-1.90;99.90;;;;;;10458571;28;20227;-82
2024/01/06 17:48:10;;;;;;;35.50;17.63;;;-1.70;99.90;;;;;;10452628;28;20301;-82
2024/01/06 17:53:13;;;;;;;23.70;14.23;;;-1.70;99.90;;;;;;10450909;28;20672;-82
2024/01/06 17:58:15;;;;;;;30.73;15.33;;;-1.70;99.90;;;;;;10451580;28;20733;-82
2024/01/06 18:03:18;;;;;;;18.87;11.07;;;-1.70;99.90;;;;;;10453440;28;20232;-82
2024/01/06 18:08:20;;;;;;;17.73;10.57;;;-1.60;99.90;;;;;;10490703;28;20247;-81
2024/01/06 18:13:23;;;;;;;30.73;14.40;;;-1.60;99.90;;;;;;10492809;28;20661;-84
2024/01/06 18:18:25;;;;;;;35.40;13.77;;;-1.70;99.90;;;;;;10494301;28;20644;-90
2024/01/06 18:23:28;;;;;;;442.43;161.63;;;-1.60;99.90;;;;;;10125319;28;10000045;-90
2024/01/06 18:28:32;;;;;;;148.93;69.80;;;0.10;99.90;;;;;;10474858;28;20259;-91
2024/01/06 18:33:34;;;;;;;153.57;70.67;;;3.20;99.90;;;;;;10491961;28;20228;-89
2024/01/06 18:38:37;;;;;;;15.87;8.80;;;5.60;99.90;;;;;;10470308;28;20258;-88
2024/01/06 18:43:40;;;;;;;22.30;13.30;;;2.40;99.90;;;;;;10487936;28;20230;-87
2024/01/06 18:48:42;;;;;;;38.67;19.80;;;0.10;99.90;;;;;;10468444;28;20703;-86
2024/01/06 18:53:45;;;;;;;21.80;13.27;;;-0.80;99.90;;;;;;10481012;28;20288;-88
2024/01/06 18:58:48;;;;;;;101.10;49.83;;;-0.80;99.90;;;;;;10429721;28;20635;-87
2024/01/06 19:03:54;;;;;;;132.70;61.33;;;-0.30;99.90;;;;;;10462143;28;20296;-87
2024/01/06 19:08:56;;;;;;;188.97;89.83;;;0.60;99.90;;;;;;10481159;28;20229;-88
2024/01/06 19:13:59;;;;;;;153.50;72.13;;;1.20;99.90;;;;;;10448222;28;20260;-88
2024/01/06 19:19:03;;;;;;;193.03;94.33;;;1.80;99.90;;;;;;10464101;28;20249;-87
2024/01/06 19:24:06;;;;;;;194.63;93.53;;;2.10;99.90;;;;;;10455470;28;20291;-87
2024/01/06 19:29:09;;;;;;;165.23;84.23;;;2.60;99.90;;;;;;10474581;28;20264;-87
2024/01/06 19:34:11;;;;;;;65.60;37.80;;;2.80;99.90;;;;;;10493430;28;20268;-85
2024/01/06 19:39:14;;;;;;;164.27;81.63;;;3.40;99.90;;;;;;10491881;28;20250;-89
2024/01/06 19:44:16;;;;;;;113.63;61.23;;;3.60;99.90;;;;;;10492620;28;20236;-89
2024/01/06 19:49:20;;;;;;;47.80;25.57;;;3.30;99.90;;;;;;10497432;28;20290;-87
2024/01/06 19:54:23;;;;;;;39.57;23.17;;;4.40;99.90;;;;;;10479260;28;20299;-86
2024/01/06 19:59:26;;;;;;;69.73;38.00;;;3.40;99.90;;;;;;10479782;28;20261;-86
2024/01/06 20:04:29;;;;;;;52.33;28.53;;;3.90;99.90;;;;;;10495655;28;20253;-87
2024/01/06 20:09:32;;;;;;;52.73;34.20;;;4.10;99.90;;;;;;10495565;28;20226;-87
2024/01/06 20:14:34;;;;;;;46.93;27.60;;;4.80;99.90;;;;;;10498000;28;20226;-88
2024/01/06 20:19:37;;;;;;;9.47;7.20;;;3.90;99.90;;;;;;10486030;28;20322;-85
2024/01/06 20:24:40;;;;;;;14.47;10.17;;;0.50;99.90;;;;;;10494077;28;20230;-90
2024/01/06 20:29:42;;;;;;;13.83;8.83;;;-0.30;99.90;;;;;;10494237;28;20612;-87
2024/01/06 20:34:45;;;;;;;12.10;8.63;;;-0.40;99.90;;;;;;10472648;28;20229;-89
2024/01/06 20:39:48;;;;;;;13.33;9.07;;;-1.00;99.90;;;;;;10447441;28;20254;-89
2024/01/06 20:44:51;;;;;;;61.23;32.30;;;-1.60;99.90;;;;;;10492470;28;21143;-89
2024/01/06 20:49:53;;;;;;;80.97;44.33;;;-1.10;99.90;;;;;;10496661;28;20272;-91
2024/01/06 20:54:56;;;;;;;931.33;693.90;;;5.10;99.90;;;;;;10462465;28;20299;-91
2024/01/06 20:59:58;;;;;;;1999.90;980.00;;;6.80;99.90;;;;;;10456318;28;20210;-89
2024/01/06 21:05:04;;;;;;;58.10;34.63;;;7.50;99.90;;;;;;10453256;28;20223;-89
2024/01/06 21:10:10;;;;;;;736.27;608.33;;;7.50;99.90;;;;;;10450182;28;20675;-88
